sensor_id;sensor_type;location;lat;lon;timestamp;P1;durP1;ratioP1;P2;durP2;ratioP2
65658;SDS011;60181;53.258;6.932;2023-09-30T00:01:56;14.20;;;3.50;;
65658;SDS011;60181;53.258;6.932;2023-09-30T00:06:16;21.60;;;3.80;;
65658;SDS011;60181;53.258;6.932;2023-09-30T00:10:36;21.60;;;3.80;;
65658;SDS011;60181;53.258;6.932;2023-09-30T00:14:56;16.20;;;3.30;;
65658;SDS011;60181;53.258;6.932;2023-09-30T00:19:16;16.20;;;3.30;;
65658;SDS011;60181;53.258;6.932;2023-09-30T00:23:36;16.20;;;3.30;;
65658;SDS011;60181;53.258;6.932;2023-09-30T00:27:56;16.20;;;3.30;;
65658;SDS011;60181;53.258;6.932;2023-09-30T00:32:16;16.20;;;3.30;;
65658;SDS011;60181;53.258;6.932;2023-09-30T00:36:36;15.40;;;3.40;;
65658;SDS011;60181;53.258;6.932;2023-09-30T00:40:56;15.40;;;3.40;;
65658;SDS011;60181;53.258;6.932;2023-09-30T00:45:16;14.50;;;3.30;;
65658;SDS011;60181;53.258;6.932;2023-09-30T00:49:36;14.50;;;3.30;;
65658;SDS011;60181;53.258;6.932;2023-09-30T00:53:57;14.50;;;3.30;;
65658;SDS011;60181;53.258;6.932;2023-09-30T00:58:16;15.20;;;3.10;;
65658;SDS011;60181;53.258;6.932;2023-09-30T01:02:36;15.20;;;3.10;;
65658;SDS011;60181;53.258;6.932;2023-09-30T01:06:56;12.40;;;3.40;;
65658;SDS011;60181;53.258;6.932;2023-09-30T01:11:16;12.40;;;3.40;;
65658;SDS011;60181;53.258;6.932;2023-09-30T01:15:36;13.40;;;3.30;;
65658;SDS011;60181;53.258;6.932;2023-09-30T01:19:57;13.40;;;3.30;;
65658;SDS011;60181;53.258;6.932;2023-09-30T01:24:16;13.40;;;3.30;;
65658;SDS011;60181;53.258;6.932;2023-09-30T01:28:36;15.20;;;2.90;;
65658;SDS011;60181;53.258;6.932;2023-09-30T01:32:56;15.20;;;2.90;;
65658;SDS011;60181;53.258;6.932;2023-09-30T01:37:16;15.70;;;3.30;;
65658;SDS011;60181;53.258;6.932;2023-09-30T01:41:39;15.70;;;3.30;;
65658;SDS011;60181;53.258;6.932;2023-09-30T01:45:56;15.80;;;3.20;;
65658;SDS011;60181;53.258;6.932;2023-09-30T01:50:16;15.80;;;3.20;;
65658;SDS011;60181;53.258;6.932;2023-09-30T01:54:36;17.00;;;3.30;;
65658;SDS011;60181;53.258;6.932;2023-09-30T01:58:56;17.00;;;3.30;;
65658;SDS011;60181;53.258;6.932;2023-09-30T02:03:16;17.00;;;3.30;;
65658;SDS011;60181;53.258;6.932;2023-09-30T02:07:36;15.60;;;2.80;;
65658;SDS011;60181;53.258;6.932;2023-09-30T02:11:56;15.60;;;2.80;;
65658;SDS011;60181;53.258;6.932;2023-09-30T02:16:16;15.00;;;3.10;;
65658;SDS011;60181;53.258;6.932;2023-09-30T02:20:36;15.00;;;3.10;;
65658;SDS011;60181;53.258;6.932;2023-09-30T02:24:56;10.20;;;3.00;;
65658;SDS011;60181;53.258;6.932;2023-09-30T02:29:16;10.20;;;3.00;;
65658;SDS011;60181;53.258;6.932;2023-09-30T02:33:36;10.20;;;3.00;;
65658;SDS011;60181;53.258;6.932;2023-09-30T02:37:56;14.20;;;2.90;;
65658;SDS011;60181;53.258;6.932;2023-09-30T02:42:16;14.20;;;2.90;;
65658;SDS011;60181;53.258;6.932;2023-09-30T02:46:36;13.40;;;2.70;;
65658;SDS011;60181;53.258;6.932;2023-09-30T02:50:56;13.40;;;2.70;;
65658;SDS011;60181;53.258;6.932;2023-09-30T02:55:16;15.40;;;2.80;;
65658;SDS011;60181;53.258;6.932;2023-09-30T02:59:36;15.40;;;2.80;;
65658;SDS011;60181;53.258;6.932;2023-09-30T03:03:56;15.40;;;2.80;;
65658;SDS011;60181;53.258;6.932;2023-09-30T03:08:16;15.60;;;2.90;;
65658;SDS011;60181;53.258;6.932;2023-09-30T03:12:36;15.60;;;2.90;;
65658;SDS011;60181;53.258;6.932;2023-09-30T03:16:56;11.40;;;2.50;;
65658;SDS011;60181;53.258;6.932;2023-09-30T03:21:16;11.40;;;2.50;;
65658;SDS011;60181;53.258;6.932;2023-09-30T03:25:36;11.70;;;2.40;;
65658;SDS011;60181;53.258;6.932;2023-09-30T03:29:56;11.70;;;2.40;;
65658;SDS011;60181;53.258;6.932;2023-09-30T03:34:16;11.70;;;2.40;;
65658;SDS011;60181;53.258;6.932;2023-09-30T03:38:36;12.00;;;2.60;;
65658;SDS011;60181;53.258;6.932;2023-09-30T03:42:56;12.00;;;2.60;;
65658;SDS011;60181;53.258;6.932;2023-09-30T03:47:16;10.90;;;2.70;;
65658;SDS011;60181;53.258;6.932;2023-09-30T03:51:36;10.90;;;2.70;;
65658;SDS011;60181;53.258;6.932;2023-09-30T03:55:56;15.90;;;2.70;;
65658;SDS011;60181;53.258;6.932;2023-09-30T04:00:16;15.90;;;2.70;;
65658;SDS011;60181;53.258;6.932;2023-09-30T04:04:36;10.70;;;2.70;;
65658;SDS011;60181;53.258;6.932;2023-09-30T04:08:55;10.70;;;2.70;;
65658;SDS011;60181;53.258;6.932;2023-09-30T04:13:15;10.70;;;2.70;;
65658;SDS011;60181;53.258;6.932;2023-09-30T04:17:35;10.40;;;2.80;;
65658;SDS011;60181;53.258;6.932;2023-09-30T04:21:56;10.40;;;2.80;;
65658;SDS011;60181;53.258;6.932;2023-09-30T04:26:15;11.50;;;2.70;;
65658;SDS011;60181;53.258;6.932;2023-09-30T04:30:35;11.50;;;2.70;;
65658;SDS011;60181;53.258;6.932;2023-09-30T04:34:55;11.30;;;2.40;;
65658;SDS011;60181;53.258;6.932;2023-09-30T04:39:15;11.30;;;2.40;;
65658;SDS011;60181;53.258;6.932;2023-09-30T04:43:35;11.30;;;2.40;;
65658;SDS011;60181;53.258;6.932;2023-09-30T04:47:55;8.40;;;2.60;;
65658;SDS011;60181;53.258;6.932;2023-09-30T04:52:15;8.40;;;2.60;;
65658;SDS011;60181;53.258;6.932;2023-09-30T04:56:36;11.30;;;3.00;;
65658;SDS011;60181;53.258;6.932;2023-09-30T05:00:55;11.30;;;3.00;;
65658;SDS011;60181;53.258;6.932;2023-09-30T05:05:15;12.90;;;2.60;;
65658;SDS011;60181;53.258;6.932;2023-09-30T05:09:35;12.90;;;2.60;;
65658;SDS011;60181;53.258;6.932;2023-09-30T05:13:55;12.90;;;2.60;;
65658;SDS011;60181;53.258;6.932;2023-09-30T05:18:15;11.80;;;2.50;;
65658;SDS011;60181;53.258;6.932;2023-09-30T05:22:35;11.80;;;2.50;;
65658;SDS011;60181;53.258;6.932;2023-09-30T05:26:55;11.40;;;2.90;;
65658;SDS011;60181;53.258;6.932;2023-09-30T05:31:15;11.40;;;2.90;;
65658;SDS011;60181;53.258;6.932;2023-09-30T05:35:35;11.30;;;2.60;;
65658;SDS011;60181;53.258;6.932;2023-09-30T05:39:55;11.30;;;2.60;;
65658;SDS011;60181;53.258;6.932;2023-09-30T05:44:15;11.30;;;2.60;;
65658;SDS011;60181;53.258;6.932;2023-09-30T05:48:36;11.10;;;3.30;;
65658;SDS011;60181;53.258;6.932;2023-09-30T05:52:55;11.10;;;3.30;;
65658;SDS011;60181;53.258;6.932;2023-09-30T05:57:15;11.10;;;3.30;;
65658;SDS011;60181;53.258;6.932;2023-09-30T06:01:35;11.10;;;3.30;;
65658;SDS011;60181;53.258;6.932;2023-09-30T06:05:55;12.60;;;3.30;;
65658;SDS011;60181;53.258;6.932;2023-09-30T06:10:15;12.60;;;3.30;;
65658;SDS011;60181;53.258;6.932;2023-09-30T06:14:35;10.70;;;3.60;;
65658;SDS011;60181;53.258;6.932;2023-09-30T06:18:55;10.70;;;3.60;;
65658;SDS011;60181;53.258;6.932;2023-09-30T06:23:15;10.70;;;3.60;;
65658;SDS011;60181;53.258;6.932;2023-09-30T06:27:35;10.30;;;3.70;;
65658;SDS011;60181;53.258;6.932;2023-09-30T06:31:55;10.30;;;3.70;;
65658;SDS011;60181;53.258;6.932;2023-09-30T06:36:15;11.60;;;4.50;;
65658;SDS011;60181;53.258;6.932;2023-09-30T06:40:35;11.60;;;4.50;;
65658;SDS011;60181;53.258;6.932;2023-09-30T06:44:55;10.30;;;4.10;;
65658;SDS011;60181;53.258;6.932;2023-09-30T06:49:15;10.30;;;4.10;;
65658;SDS011;60181;53.258;6.932;2023-09-30T06:53:35;10.30;;;4.10;;
65658;SDS011;60181;53.258;6.932;2023-09-30T06:57:55;9.10;;;4.30;;
65658;SDS011;60181;53.258;6.932;2023-09-30T07:02:15;9.10;;;4.30;;
65658;SDS011;60181;53.258;6.932;2023-09-30T07:06:35;11.50;;;3.90;;
65658;SDS011;60181;53.258;6.932;2023-09-30T07:10:55;11.50;;;3.90;;
65658;SDS011;60181;53.258;6.932;2023-09-30T07:15:15;17.30;;;4.10;;
65658;SDS011;60181;53.258;6.932;2023-09-30T07:19:35;17.30;;;4.10;;
65658;SDS011;60181;53.258;6.932;2023-09-30T07:23:55;17.30;;;4.10;;
65658;SDS011;60181;53.258;6.932;2023-09-30T07:28:15;16.30;;;4.20;;
65658;SDS011;60181;53.258;6.932;2023-09-30T07:32:35;16.30;;;4.20;;
65658;SDS011;60181;53.258;6.932;2023-09-30T07:36:55;16.80;;;4.20;;
65658;SDS011;60181;53.258;6.932;2023-09-30T07:41:15;16.80;;;4.20;;
65658;SDS011;60181;53.258;6.932;2023-09-30T07:45:36;10.70;;;3.90;;
65658;SDS011;60181;53.258;6.932;2023-09-30T07:49:55;10.70;;;3.90;;
65658;SDS011;60181;53.258;6.932;2023-09-30T07:54:15;10.70;;;3.90;;
65658;SDS011;60181;53.258;6.932;2023-09-30T07:58:35;15.80;;;4.00;;
65658;SDS011;60181;53.258;6.932;2023-09-30T08:02:55;15.80;;;4.00;;
65658;SDS011;60181;53.258;6.932;2023-09-30T08:07:15;15.80;;;4.00;;
65658;SDS011;60181;53.258;6.932;2023-09-30T08:11:35;15.80;;;4.00;;
65658;SDS011;60181;53.258;6.932;2023-09-30T08:15:55;11.90;;;4.00;;
65658;SDS011;60181;53.258;6.932;2023-09-30T08:20:15;11.90;;;4.00;;
65658;SDS011;60181;53.258;6.932;2023-09-30T08:24:35;12.90;;;4.20;;
65658;SDS011;60181;53.258;6.932;2023-09-30T08:28:55;12.90;;;4.20;;
65658;SDS011;60181;53.258;6.932;2023-09-30T08:33:15;12.90;;;4.20;;
65658;SDS011;60181;53.258;6.932;2023-09-30T08:37:35;10.80;;;3.70;;
65658;SDS011;60181;53.258;6.932;2023-09-30T08:41:55;10.80;;;3.70;;
65658;SDS011;60181;53.258;6.932;2023-09-30T08:46:15;9.70;;;4.00;;
65658;SDS011;60181;53.258;6.932;2023-09-30T08:50:35;9.70;;;4.00;;
65658;SDS011;60181;53.258;6.932;2023-09-30T08:54:55;7.80;;;3.60;;
65658;SDS011;60181;53.258;6.932;2023-09-30T08:59:15;7.80;;;3.60;;
65658;SDS011;60181;53.258;6.932;2023-09-30T09:03:35;7.80;;;3.60;;
65658;SDS011;60181;53.258;6.932;2023-09-30T09:07:55;9.10;;;3.60;;
65658;SDS011;60181;53.258;6.932;2023-09-30T09:12:19;9.10;;;3.60;;
65658;SDS011;60181;53.258;6.932;2023-09-30T09:16:35;10.30;;;3.80;;
65658;SDS011;60181;53.258;6.932;2023-09-30T09:21:07;10.30;;;3.80;;
65658;SDS011;60181;53.258;6.932;2023-09-30T09:25:15;8.30;;;3.60;;
65658;SDS011;60181;53.258;6.932;2023-09-30T09:29:35;8.30;;;3.60;;
65658;SDS011;60181;53.258;6.932;2023-09-30T09:33:55;8.30;;;3.60;;
65658;SDS011;60181;53.258;6.932;2023-09-30T09:38:15;7.80;;;3.70;;
65658;SDS011;60181;53.258;6.932;2023-09-30T09:42:35;7.80;;;3.70;;
65658;SDS011;60181;53.258;6.932;2023-09-30T09:46:55;9.90;;;3.50;;
65658;SDS011;60181;53.258;6.932;2023-09-30T09:51:15;9.90;;;3.50;;
65658;SDS011;60181;53.258;6.932;2023-09-30T09:55:35;7.30;;;3.30;;
65658;SDS011;60181;53.258;6.932;2023-09-30T09:59:55;7.30;;;3.30;;
65658;SDS011;60181;53.258;6.932;2023-09-30T10:04:15;7.30;;;3.30;;
65658;SDS011;60181;53.258;6.932;2023-09-30T10:08:37;8.00;;;3.20;;
65658;SDS011;60181;53.258;6.932;2023-09-30T10:12:55;8.00;;;3.20;;
65658;SDS011;60181;53.258;6.932;2023-09-30T10:17:15;10.40;;;3.50;;
65658;SDS011;60181;53.258;6.932;2023-09-30T10:21:35;10.40;;;3.50;;
65658;SDS011;60181;53.258;6.932;2023-09-30T10:30:15;10.00;;;3.10;;
65658;SDS011;60181;53.258;6.932;2023-09-30T10:34:35;9.90;;;2.80;;
65658;SDS011;60181;53.258;6.932;2023-09-30T10:38:55;9.90;;;2.80;;
65658;SDS011;60181;53.258;6.932;2023-09-30T10:43:30;9.90;;;2.80;;
65658;SDS011;60181;53.258;6.932;2023-09-30T10:47:35;10.50;;;3.00;;
65658;SDS011;60181;53.258;6.932;2023-09-30T10:51:56;10.50;;;3.00;;
65658;SDS011;60181;53.258;6.932;2023-09-30T10:56:15;10.00;;;2.70;;
65658;SDS011;60181;53.258;6.932;2023-09-30T11:00:35;10.00;;;2.70;;
65658;SDS011;60181;53.258;6.932;2023-09-30T11:04:55;10.50;;;2.70;;
65658;SDS011;60181;53.258;6.932;2023-09-30T11:09:15;10.50;;;2.70;;
65658;SDS011;60181;53.258;6.932;2023-09-30T11:13:35;10.50;;;2.70;;
65658;SDS011;60181;53.258;6.932;2023-09-30T11:18:11;11.30;;;2.60;;
65658;SDS011;60181;53.258;6.932;2023-09-30T11:22:15;11.30;;;2.60;;
65658;SDS011;60181;53.258;6.932;2023-09-30T11:26:35;13.90;;;2.50;;
65658;SDS011;60181;53.258;6.932;2023-09-30T11:30:55;13.90;;;2.50;;
65658;SDS011;60181;53.258;6.932;2023-09-30T11:35:23;10.60;;;2.40;;
65658;SDS011;60181;53.258;6.932;2023-09-30T11:39:35;10.60;;;2.40;;
65658;SDS011;60181;53.258;6.932;2023-09-30T11:44:02;10.60;;;2.40;;
65658;SDS011;60181;53.258;6.932;2023-09-30T11:48:16;13.40;;;2.40;;
65658;SDS011;60181;53.258;6.932;2023-09-30T11:52:35;13.40;;;2.40;;
65658;SDS011;60181;53.258;6.932;2023-09-30T11:56:55;7.70;;;2.20;;
65658;SDS011;60181;53.258;6.932;2023-09-30T12:01:15;7.70;;;2.20;;
65658;SDS011;60181;53.258;6.932;2023-09-30T12:05:35;9.10;;;2.20;;
65658;SDS011;60181;53.258;6.932;2023-09-30T12:09:55;9.10;;;2.20;;
65658;SDS011;60181;53.258;6.932;2023-09-30T12:14:15;9.10;;;2.20;;
65658;SDS011;60181;53.258;6.932;2023-09-30T12:18:35;9.70;;;2.20;;
65658;SDS011;60181;53.258;6.932;2023-09-30T12:22:55;9.70;;;2.20;;
65658;SDS011;60181;53.258;6.932;2023-09-30T12:27:15;10.80;;;2.30;;
65658;SDS011;60181;53.258;6.932;2023-09-30T12:31:35;10.80;;;2.30;;
65658;SDS011;60181;53.258;6.932;2023-09-30T12:35:55;7.30;;;2.40;;
65658;SDS011;60181;53.258;6.932;2023-09-30T12:40:15;7.30;;;2.40;;
65658;SDS011;60181;53.258;6.932;2023-09-30T12:44:35;9.40;;;2.10;;
65658;SDS011;60181;53.258;6.932;2023-09-30T12:48:55;9.40;;;2.10;;
65658;SDS011;60181;53.258;6.932;2023-09-30T12:53:15;9.40;;;2.10;;
65658;SDS011;60181;53.258;6.932;2023-09-30T12:57:35;7.60;;;2.10;;
65658;SDS011;60181;53.258;6.932;2023-09-30T13:01:55;7.60;;;2.10;;
65658;SDS011;60181;53.258;6.932;2023-09-30T13:06:15;7.70;;;2.10;;
65658;SDS011;60181;53.258;6.932;2023-09-30T13:10:35;7.70;;;2.10;;
65658;SDS011;60181;53.258;6.932;2023-09-30T13:14:55;6.10;;;1.90;;
65658;SDS011;60181;53.258;6.932;2023-09-30T13:19:15;6.10;;;1.90;;
65658;SDS011;60181;53.258;6.932;2023-09-30T13:23:35;6.10;;;1.90;;
65658;SDS011;60181;53.258;6.932;2023-09-30T13:27:55;6.70;;;1.80;;
65658;SDS011;60181;53.258;6.932;2023-09-30T13:32:15;6.70;;;1.80;;
65658;SDS011;60181;53.258;6.932;2023-09-30T13:36:35;4.20;;;1.80;;
65658;SDS011;60181;53.258;6.932;2023-09-30T13:40:55;4.20;;;1.80;;
65658;SDS011;60181;53.258;6.932;2023-09-30T13:45:15;5.30;;;1.80;;
65658;SDS011;60181;53.258;6.932;2023-09-30T13:49:35;5.30;;;1.80;;
65658;SDS011;60181;53.258;6.932;2023-09-30T13:53:55;5.30;;;1.80;;
65658;SDS011;60181;53.258;6.932;2023-09-30T13:58:15;6.70;;;1.80;;
65658;SDS011;60181;53.258;6.932;2023-09-30T14:02:35;6.70;;;1.80;;
65658;SDS011;60181;53.258;6.932;2023-09-30T14:06:55;4.10;;;1.70;;
65658;SDS011;60181;53.258;6.932;2023-09-30T14:11:15;4.10;;;1.70;;
65658;SDS011;60181;53.258;6.932;2023-09-30T14:15:35;5.10;;;1.80;;
65658;SDS011;60181;53.258;6.932;2023-09-30T14:19:55;5.10;;;1.80;;
65658;SDS011;60181;53.258;6.932;2023-09-30T14:24:15;5.10;;;1.80;;
65658;SDS011;60181;53.258;6.932;2023-09-30T14:28:35;5.40;;;1.60;;
65658;SDS011;60181;53.258;6.932;2023-09-30T14:32:55;5.40;;;1.60;;
65658;SDS011;60181;53.258;6.932;2023-09-30T14:37:15;9.50;;;2.10;;
65658;SDS011;60181;53.258;6.932;2023-09-30T14:41:35;9.50;;;2.10;;
65658;SDS011;60181;53.258;6.932;2023-09-30T14:45:55;7.00;;;1.90;;
65658;SDS011;60181;53.258;6.932;2023-09-30T14:50:15;7.00;;;1.90;;
65658;SDS011;60181;53.258;6.932;2023-09-30T14:54:35;9.10;;;1.80;;
65658;SDS011;60181;53.258;6.932;2023-09-30T14:58:55;9.10;;;1.80;;
65658;SDS011;60181;53.258;6.932;2023-09-30T15:03:15;9.10;;;1.80;;
65658;SDS011;60181;53.258;6.932;2023-09-30T15:07:35;8.80;;;2.40;;
65658;SDS011;60181;53.258;6.932;2023-09-30T15:11:55;8.80;;;2.40;;
65658;SDS011;60181;53.258;6.932;2023-09-30T15:16:15;9.00;;;2.00;;
65658;SDS011;60181;53.258;6.932;2023-09-30T15:20:38;9.00;;;2.00;;
65658;SDS011;60181;53.258;6.932;2023-09-30T15:24:55;10.80;;;2.10;;
65658;SDS011;60181;53.258;6.932;2023-09-30T15:29:15;10.80;;;2.10;;
65658;SDS011;60181;53.258;6.932;2023-09-30T15:33:35;10.80;;;2.10;;
65658;SDS011;60181;53.258;6.932;2023-09-30T15:37:55;9.40;;;2.00;;
65658;SDS011;60181;53.258;6.932;2023-09-30T15:42:15;9.40;;;2.00;;
65658;SDS011;60181;53.258;6.932;2023-09-30T15:46:35;8.20;;;1.70;;
65658;SDS011;60181;53.258;6.932;2023-09-30T15:50:55;8.20;;;1.70;;
65658;SDS011;60181;53.258;6.932;2023-09-30T15:55:15;9.40;;;2.00;;
65658;SDS011;60181;53.258;6.932;2023-09-30T15:59:35;9.40;;;2.00;;
65658;SDS011;60181;53.258;6.932;2023-09-30T16:03:55;9.40;;;2.00;;
65658;SDS011;60181;53.258;6.932;2023-09-30T16:08:15;9.60;;;2.00;;
65658;SDS011;60181;53.258;6.932;2023-09-30T16:12:34;9.60;;;2.00;;
65658;SDS011;60181;53.258;6.932;2023-09-30T16:16:55;5.60;;;1.80;;
65658;SDS011;60181;53.258;6.932;2023-09-30T16:21:15;5.60;;;1.80;;
65658;SDS011;60181;53.258;6.932;2023-09-30T16:25:35;7.10;;;2.00;;
65658;SDS011;60181;53.258;6.932;2023-09-30T16:29:55;7.10;;;2.00;;
65658;SDS011;60181;53.258;6.932;2023-09-30T16:34:14;7.10;;;2.00;;
65658;SDS011;60181;53.258;6.932;2023-09-30T16:38:34;4.70;;;1.60;;
65658;SDS011;60181;53.258;6.932;2023-09-30T16:42:54;4.70;;;1.60;;
65658;SDS011;60181;53.258;6.932;2023-09-30T16:47:14;6.80;;;2.10;;
65658;SDS011;60181;53.258;6.932;2023-09-30T16:51:34;6.80;;;2.10;;
65658;SDS011;60181;53.258;6.932;2023-09-30T16:55:54;7.10;;;1.80;;
65658;SDS011;60181;53.258;6.932;2023-09-30T17:00:15;7.10;;;1.80;;
65658;SDS011;60181;53.258;6.932;2023-09-30T17:04:34;6.10;;;1.60;;
65658;SDS011;60181;53.258;6.932;2023-09-30T17:08:54;6.10;;;1.60;;
65658;SDS011;60181;53.258;6.932;2023-09-30T17:13:14;6.10;;;1.60;;
65658;SDS011;60181;53.258;6.932;2023-09-30T17:17:34;7.00;;;1.60;;
65658;SDS011;60181;53.258;6.932;2023-09-30T17:21:54;7.00;;;1.60;;
65658;SDS011;60181;53.258;6.932;2023-09-30T17:26:14;6.70;;;1.70;;
65658;SDS011;60181;53.258;6.932;2023-09-30T17:30:34;6.70;;;1.70;;
65658;SDS011;60181;53.258;6.932;2023-09-30T17:34:54;4.90;;;1.60;;
65658;SDS011;60181;53.258;6.932;2023-09-30T17:39:14;4.90;;;1.60;;
65658;SDS011;60181;53.258;6.932;2023-09-30T17:43:35;4.90;;;1.60;;
65658;SDS011;60181;53.258;6.932;2023-09-30T17:47:54;5.70;;;1.70;;
65658;SDS011;60181;53.258;6.932;2023-09-30T17:52:14;5.70;;;1.70;;
65658;SDS011;60181;53.258;6.932;2023-09-30T17:56:34;4.00;;;1.60;;
65658;SDS011;60181;53.258;6.932;2023-09-30T18:00:54;4.00;;;1.60;;
65658;SDS011;60181;53.258;6.932;2023-09-30T18:05:14;4.40;;;1.40;;
65658;SDS011;60181;53.258;6.932;2023-09-30T18:09:34;4.40;;;1.40;;
65658;SDS011;60181;53.258;6.932;2023-09-30T18:13:54;4.40;;;1.40;;
65658;SDS011;60181;53.258;6.932;2023-09-30T18:18:14;3.90;;;1.50;;
65658;SDS011;60181;53.258;6.932;2023-09-30T18:22:34;3.90;;;1.50;;
65658;SDS011;60181;53.258;6.932;2023-09-30T18:26:54;3.90;;;1.60;;
65658;SDS011;60181;53.258;6.932;2023-09-30T18:31:17;3.90;;;1.60;;
65658;SDS011;60181;53.258;6.932;2023-09-30T18:35:38;4.80;;;1.50;;
65658;SDS011;60181;53.258;6.932;2023-09-30T18:39:54;4.80;;;1.50;;
65658;SDS011;60181;53.258;6.932;2023-09-30T18:44:14;4.80;;;1.50;;
65658;SDS011;60181;53.258;6.932;2023-09-30T18:48:34;3.60;;;1.50;;
65658;SDS011;60181;53.258;6.932;2023-09-30T18:52:54;3.60;;;1.50;;
65658;SDS011;60181;53.258;6.932;2023-09-30T18:57:14;7.80;;;1.40;;
65658;SDS011;60181;53.258;6.932;2023-09-30T19:01:34;7.80;;;1.40;;
65658;SDS011;60181;53.258;6.932;2023-09-30T19:05:54;4.20;;;1.50;;
65658;SDS011;60181;53.258;6.932;2023-09-30T19:10:14;4.20;;;1.50;;
65658;SDS011;60181;53.258;6.932;2023-09-30T19:14:34;6.00;;;1.60;;
65658;SDS011;60181;53.258;6.932;2023-09-30T19:18:54;6.00;;;1.60;;
65658;SDS011;60181;53.258;6.932;2023-09-30T19:23:14;6.00;;;1.60;;
65658;SDS011;60181;53.258;6.932;2023-09-30T19:27:34;3.90;;;1.60;;
65658;SDS011;60181;53.258;6.932;2023-09-30T19:31:54;3.90;;;1.60;;
65658;SDS011;60181;53.258;6.932;2023-09-30T19:36:14;4.20;;;1.70;;
65658;SDS011;60181;53.258;6.932;2023-09-30T19:40:34;4.20;;;1.70;;
65658;SDS011;60181;53.258;6.932;2023-09-30T19:44:55;3.80;;;1.60;;
65658;SDS011;60181;53.258;6.932;2023-09-30T19:49:14;3.80;;;1.60;;
65658;SDS011;60181;53.258;6.932;2023-09-30T19:53:34;3.80;;;1.60;;
65658;SDS011;60181;53.258;6.932;2023-09-30T19:57:54;5.80;;;1.60;;
65658;SDS011;60181;53.258;6.932;2023-09-30T20:02:14;5.80;;;1.60;;
65658;SDS011;60181;53.258;6.932;2023-09-30T20:06:34;3.30;;;1.60;;
65658;SDS011;60181;53.258;6.932;2023-09-30T20:10:54;3.30;;;1.60;;
65658;SDS011;60181;53.258;6.932;2023-09-30T20:15:14;6.40;;;1.70;;
65658;SDS011;60181;53.258;6.932;2023-09-30T20:19:34;6.40;;;1.70;;
65658;SDS011;60181;53.258;6.932;2023-09-30T20:23:54;6.40;;;1.70;;
65658;SDS011;60181;53.258;6.932;2023-09-30T20:28:14;4.70;;;1.80;;
65658;SDS011;60181;53.258;6.932;2023-09-30T20:32:34;4.70;;;1.80;;
65658;SDS011;60181;53.258;6.932;2023-09-30T20:36:54;4.00;;;1.50;;
65658;SDS011;60181;53.258;6.932;2023-09-30T20:41:14;4.00;;;1.50;;
65658;SDS011;60181;53.258;6.932;2023-09-30T20:45:34;3.20;;;1.60;;
65658;SDS011;60181;53.258;6.932;2023-09-30T20:49:54;3.20;;;1.60;;
65658;SDS011;60181;53.258;6.932;2023-09-30T20:54:14;3.20;;;1.60;;
65658;SDS011;60181;53.258;6.932;2023-09-30T20:58:34;11.10;;;1.90;;
65658;SDS011;60181;53.258;6.932;2023-09-30T21:02:54;11.10;;;1.90;;
65658;SDS011;60181;53.258;6.932;2023-09-30T21:07:14;7.40;;;2.30;;
65658;SDS011;60181;53.258;6.932;2023-09-30T21:11:34;7.40;;;2.30;;
65658;SDS011;60181;53.258;6.932;2023-09-30T21:15:54;8.90;;;2.90;;
65658;SDS011;60181;53.258;6.932;2023-09-30T21:20:14;8.90;;;2.90;;
65658;SDS011;60181;53.258;6.932;2023-09-30T21:24:34;10.60;;;3.00;;
65658;SDS011;60181;53.258;6.932;2023-09-30T21:28:54;10.60;;;3.00;;
65658;SDS011;60181;53.258;6.932;2023-09-30T21:33:14;10.60;;;3.00;;
65658;SDS011;60181;53.258;6.932;2023-09-30T21:37:34;10.60;;;3.00;;
65658;SDS011;60181;53.258;6.932;2023-09-30T21:41:54;10.60;;;3.00;;
65658;SDS011;60181;53.258;6.932;2023-09-30T21:46:14;11.30;;;3.40;;
65658;SDS011;60181;53.258;6.932;2023-09-30T21:50:34;11.30;;;3.40;;
65658;SDS011;60181;53.258;6.932;2023-09-30T21:54:54;11.00;;;3.60;;
65658;SDS011;60181;53.258;6.932;2023-09-30T21:59:14;11.00;;;3.60;;
65658;SDS011;60181;53.258;6.932;2023-09-30T22:03:34;11.00;;;3.60;;
65658;SDS011;60181;53.258;6.932;2023-09-30T22:07:54;13.10;;;3.50;;
65658;SDS011;60181;53.258;6.932;2023-09-30T22:12:14;13.10;;;3.50;;
65658;SDS011;60181;53.258;6.932;2023-09-30T22:16:34;15.60;;;3.70;;
65658;SDS011;60181;53.258;6.932;2023-09-30T22:20:54;15.60;;;3.70;;
65658;SDS011;60181;53.258;6.932;2023-09-30T22:25:14;15.70;;;4.00;;
65658;SDS011;60181;53.258;6.932;2023-09-30T22:29:34;15.70;;;4.00;;
65658;SDS011;60181;53.258;6.932;2023-09-30T22:33:54;15.70;;;4.00;;
65658;SDS011;60181;53.258;6.932;2023-09-30T22:38:14;14.00;;;4.10;;
65658;SDS011;60181;53.258;6.932;2023-09-30T22:42:34;14.00;;;4.10;;
65658;SDS011;60181;53.258;6.932;2023-09-30T22:46:54;16.10;;;4.30;;
65658;SDS011;60181;53.258;6.932;2023-09-30T22:51:14;16.10;;;4.30;;
65658;SDS011;60181;53.258;6.932;2023-09-30T22:55:34;11.90;;;3.50;;
65658;SDS011;60181;53.258;6.932;2023-09-30T22:59:54;11.90;;;3.50;;
65658;SDS011;60181;53.258;6.932;2023-09-30T23:04:14;11.90;;;3.50;;
65658;SDS011;60181;53.258;6.932;2023-09-30T23:08:34;15.30;;;4.20;;
65658;SDS011;60181;53.258;6.932;2023-09-30T23:12:54;15.30;;;4.20;;
65658;SDS011;60181;53.258;6.932;2023-09-30T23:17:14;11.70;;;4.10;;
65658;SDS011;60181;53.258;6.932;2023-09-30T23:21:34;11.70;;;4.10;;
65658;SDS011;60181;53.258;6.932;2023-09-30T23:25:54;12.90;;;4.20;;
65658;SDS011;60181;53.258;6.932;2023-09-30T23:30:14;12.90;;;4.20;;
65658;SDS011;60181;53.258;6.932;2023-09-30T23:34:34;15.50;;;4.40;;
65658;SDS011;60181;53.258;6.932;2023-09-30T23:38:54;15.50;;;4.40;;
65658;SDS011;60181;53.258;6.932;2023-09-30T23:43:14;15.50;;;4.40;;
65658;SDS011;60181;53.258;6.932;2023-09-30T23:47:34;15.50;;;4.80;;
65658;SDS011;60181;53.258;6.932;2023-09-30T23:51:57;15.50;;;4.80;;
65658;SDS011;60181;53.258;6.932;2023-09-30T23:56:14;17.90;;;4.80;;
